createdAt,value
2022-09-06T00:01:15.179Z,4.82
2022-09-06T00:03:42.542Z,8.18
2022-09-06T00:06:12.874Z,5.68
2022-09-06T00:08:40.242Z,5.88
2022-09-06T00:11:08.116Z,8.80
2022-09-06T00:13:35.498Z,4.80
2022-09-06T00:16:10.543Z,4.80
2022-09-06T00:18:37.720Z,4.88
2022-09-06T00:21:13.070Z,5.65
2022-09-06T00:23:39.990Z,6.53
2022-09-06T00:26:06.861Z,6.72
2022-09-06T00:28:33.760Z,5.38
2022-09-06T00:31:12.139Z,9.27
2022-09-06T00:33:39.302Z,7.55
2022-09-06T00:36:06.761Z,5.82
2022-09-06T00:38:34.066Z,7.40
2022-09-06T00:41:01.013Z,5.38
2022-09-06T00:43:27.950Z,7.10
2022-09-06T00:45:55.929Z,5.45
2022-09-06T00:48:23.518Z,5.28
2022-09-06T00:50:54.741Z,7.20
2022-09-06T00:53:23.532Z,4.90
2022-09-06T00:55:50.633Z,6.95
2022-09-06T00:58:17.599Z,5.03
2022-09-06T01:00:47.449Z,6.00
2022-09-06T01:03:14.668Z,5.05
2022-09-06T01:06:17.819Z,3.85
2022-09-06T01:08:59.657Z,4.80
2022-09-06T01:12:05.292Z,4.47
2022-09-06T01:14:37.646Z,6.50
2022-09-06T01:17:26.478Z,5.65
2022-09-06T01:20:27.933Z,4.05
2022-09-06T01:23:10.108Z,5.15
2022-09-06T01:26:12.258Z,4.50
2022-09-06T01:28:43.752Z,7.18
2022-09-06T01:34:03.970Z,8.30
2022-09-06T01:37:09.456Z,5.32
2022-09-06T01:39:39.446Z,4.10
2022-09-06T01:42:12.358Z,4.55
2022-09-06T01:44:45.683Z,5.50
2022-09-06T01:47:36.363Z,3.78
2022-09-06T01:50:09.376Z,6.15
2022-09-06T01:53:04.599Z,5.20
2022-09-06T01:55:58.964Z,4.40
2022-09-06T01:58:56.110Z,4.68
2022-09-06T02:01:37.991Z,3.90
2022-09-06T02:04:43.767Z,5.30
2022-09-06T02:07:20.344Z,6.00
2022-09-06T02:10:09.390Z,4.70
2022-09-06T02:12:40.751Z,5.25
2022-09-06T02:15:13.738Z,7.00
2022-09-06T02:17:47.324Z,4.25
2022-09-06T02:20:19.210Z,5.35
2022-09-06T02:22:49.209Z,2.50
2022-09-06T02:25:24.842Z,6.70
2022-09-06T02:27:51.818Z,3.63
2022-09-06T02:30:18.797Z,5.82
2022-09-06T02:32:55.976Z,3.53
2022-09-06T02:35:23.219Z,3.63
2022-09-06T02:37:50.852Z,5.82
2022-09-06T02:40:18.480Z,4.50
2022-09-06T02:42:45.349Z,3.95
2022-09-06T02:45:12.364Z,5.05
2022-09-06T02:47:39.261Z,4.03
2022-09-06T02:50:08.280Z,4.55
2022-09-06T02:52:35.128Z,6.18
2022-09-06T02:55:02.025Z,3.92
2022-09-06T02:57:29.025Z,5.32
2022-09-06T02:59:55.932Z,6.28
2022-09-06T03:02:22.832Z,4.65
2022-09-06T03:04:49.745Z,5.03
2022-09-06T03:07:16.686Z,4.55
2022-09-06T03:09:43.566Z,10.27
2022-09-06T03:12:10.501Z,6.63
2022-09-06T03:14:37.418Z,5.63
2022-09-06T03:17:04.826Z,5.60
2022-09-06T03:19:31.759Z,5.88
2022-09-06T03:21:58.635Z,8.30
2022-09-06T03:24:25.533Z,7.40
2022-09-06T03:26:52.497Z,7.47
2022-09-06T03:29:19.439Z,6.95
2022-09-06T03:31:46.299Z,7.18
2022-09-06T03:34:13.288Z,6.45
2022-09-06T03:36:40.161Z,5.85
2022-09-06T03:39:07.209Z,7.60
2022-09-06T03:41:34.082Z,8.75
2022-09-06T03:44:01.054Z,11.80
2022-09-06T03:46:30.781Z,7.70
2022-09-06T03:48:58.667Z,7.55
2022-09-06T03:51:25.986Z,10.45
2022-09-06T03:53:52.870Z,9.30
2022-09-06T03:56:20.125Z,9.70
2022-09-06T03:58:47.203Z,11.20
2022-09-06T04:01:14.215Z,10.23
2022-09-06T04:03:41.528Z,21.98
2022-09-06T04:06:08.966Z,9.50
2022-09-06T04:08:37.016Z,8.18
2022-09-06T04:11:04.463Z,17.65
2022-09-06T04:13:32.106Z,19.92
2022-09-06T04:15:59.370Z,9.82
2022-09-06T04:18:26.978Z,20.88
2022-09-06T04:20:56.211Z,11.38
2022-09-06T04:23:24.898Z,12.60
2022-09-06T04:25:55.333Z,6.25
2022-09-06T04:28:23.234Z,9.48
2022-09-06T04:30:54.270Z,5.55
2022-09-06T04:33:25.788Z,7.18
2022-09-06T04:38:27.962Z,12.60
2022-09-06T04:40:57.554Z,6.28
2022-09-06T04:43:24.847Z,5.35
2022-09-06T04:45:51.983Z,9.52
2022-09-06T04:48:18.993Z,7.88
2022-09-06T04:50:46.202Z,7.53
2022-09-06T04:53:13.271Z,7.53
2022-09-06T04:55:40.378Z,5.78
2022-09-06T04:58:07.282Z,8.73
2022-09-06T05:00:35.661Z,10.48
2022-09-06T05:03:02.527Z,6.10
2022-09-06T05:05:29.846Z,13.27
2022-09-06T05:07:57.101Z,6.63
2022-09-06T05:10:24.848Z,9.73
2022-09-06T05:12:53.202Z,7.00
2022-09-06T05:15:21.729Z,11.00
2022-09-06T05:17:48.672Z,9.95
2022-09-06T05:20:16.124Z,8.23
2022-09-06T05:22:43.124Z,5.10
2022-09-06T05:25:10.665Z,7.60
2022-09-06T05:27:37.524Z,11.60
2022-09-06T05:30:04.760Z,4.10
2022-09-06T05:32:31.712Z,7.28
2022-09-06T05:34:58.579Z,13.25
2022-09-06T05:37:25.572Z,8.88
2022-09-06T05:39:52.631Z,13.23
2022-09-06T05:42:19.642Z,11.55
2022-09-06T05:44:46.936Z,8.75
2022-09-06T05:47:13.828Z,8.20
2022-09-06T05:49:40.796Z,8.38
2022-09-06T05:52:07.734Z,7.82
2022-09-06T05:54:34.749Z,11.13
2022-09-06T05:57:02.802Z,7.82
2022-09-06T05:59:29.709Z,13.98
2022-09-06T06:01:56.700Z,11.18
2022-09-06T06:04:23.617Z,10.48
2022-09-06T06:06:50.807Z,14.90
2022-09-06T06:09:17.785Z,12.20
2022-09-06T06:11:44.858Z,5.95
2022-09-06T06:14:11.887Z,5.00
2022-09-06T06:16:38.939Z,9.40
2022-09-06T06:19:05.871Z,4.22
2022-09-06T06:21:34.065Z,8.35
2022-09-06T06:24:03.215Z,24.17
2022-09-06T06:26:33.437Z,11.20
2022-09-06T06:29:02.442Z,4.93
2022-09-06T06:31:33.920Z,7.85
2022-09-06T06:36:33.848Z,10.82
2022-09-06T06:39:02.259Z,4.20
2022-09-06T06:41:31.950Z,7.00
2022-09-06T06:44:04.292Z,5.90
2022-09-06T06:46:33.745Z,10.35
2022-09-06T06:49:00.952Z,9.27
2022-09-06T06:51:30.260Z,8.75
2022-09-06T06:53:57.701Z,15.23
2022-09-06T06:56:27.382Z,6.85
2022-09-06T06:58:57.757Z,11.07
2022-09-06T07:01:26.504Z,6.18
2022-09-06T07:03:54.512Z,5.70
2022-09-06T07:09:09.570Z,5.88
2022-09-06T07:11:36.518Z,21.05
2022-09-06T07:14:03.892Z,13.80
2022-09-06T07:16:31.553Z,6.97
2022-09-06T07:18:58.645Z,6.43
2022-09-06T07:21:42.507Z,10.13
2022-09-06T07:24:10.130Z,4.43
2022-09-06T07:26:39.378Z,5.93
2022-09-06T07:29:07.657Z,9.85
2022-09-06T07:34:23.294Z,3.47
2022-09-06T07:36:53.655Z,3.38
2022-09-06T07:39:20.598Z,3.40
2022-09-06T07:41:50.540Z,4.28
2022-09-06T07:44:17.557Z,6.38
2022-09-06T07:46:44.529Z,3.38
2022-09-06T07:49:11.626Z,6.18
2022-09-06T07:51:38.586Z,4.57
2022-09-06T07:54:29.319Z,4.97
2022-09-06T07:56:53.974Z,8.60
2022-09-06T07:59:20.878Z,5.15
2022-09-06T08:01:48.440Z,4.68
2022-09-06T08:04:15.765Z,7.05
2022-09-06T08:09:36.859Z,6.55
2022-09-06T08:12:07.395Z,4.05
2022-09-06T08:14:35.252Z,5.13
2022-09-06T08:17:03.425Z,2.47
2022-09-06T08:19:30.362Z,2.75
2022-09-06T08:21:57.420Z,5.25
2022-09-06T08:24:24.279Z,3.45
2022-09-06T08:26:51.495Z,3.60
2022-09-06T08:29:20.018Z,7.43
2022-09-06T08:31:47.330Z,2.35
2022-09-06T08:34:15.340Z,4.72
2022-09-06T08:36:43.086Z,5.88
2022-09-06T08:39:10.885Z,4.03
2022-09-06T08:41:56.471Z,1.65
2022-09-06T08:47:22.004Z,2.60
2022-09-06T08:49:53.003Z,3.10
2022-09-06T08:53:13.117Z,1.40
2022-09-06T08:55:57.633Z,2.78
2022-09-06T08:59:06.707Z,4.18
2022-09-06T09:01:53.929Z,3.05
2022-09-06T09:04:24.671Z,6.45
2022-09-06T09:06:58.108Z,1.90
2022-09-06T09:09:27.597Z,1.80
2022-09-06T09:11:56.098Z,5.63
2022-09-06T09:14:26.399Z,10.05
2022-09-06T09:16:55.153Z,5.75
2022-09-06T09:19:22.491Z,8.68
2022-09-06T09:21:49.450Z,4.95
2022-09-06T09:24:16.407Z,3.00
2022-09-06T09:27:01.961Z,1.40
2022-09-06T09:29:32.132Z,4.43
2022-09-06T09:32:01.552Z,1.52
2022-09-06T09:34:35.503Z,6.50
2022-09-06T09:40:29.996Z,1.60
2022-09-06T09:43:11.317Z,5.72
2022-09-06T09:45:38.243Z,2.80
2022-09-06T09:48:27.840Z,3.45
2022-09-06T09:50:56.182Z,3.45
2022-09-06T09:53:24.232Z,4.25
2022-09-06T09:55:58.574Z,2.20
2022-09-06T09:58:36.007Z,2.13
2022-09-06T10:01:12.269Z,2.05
2022-09-06T10:09:19.922Z,4.00
2022-09-06T10:11:57.511Z,3.40
2022-09-06T10:14:48.519Z,3.63
2022-09-06T10:17:32.636Z,6.18
2022-09-06T10:20:09.394Z,2.15
2022-09-06T10:23:05.133Z,1.90
2022-09-06T10:25:50.945Z,3.13
2022-09-06T10:28:23.915Z,1.23
2022-09-06T10:31:19.241Z,1.20
2022-09-06T10:34:00.897Z,3.50
2022-09-06T10:39:06.354Z,2.13
2022-09-06T10:42:00.679Z,1.80
2022-09-06T10:44:52.216Z,3.58
2022-09-06T10:47:19.272Z,3.20
2022-09-06T10:49:52.863Z,2.78
2022-09-06T10:52:32.892Z,2.90
2022-09-06T10:55:04.747Z,2.60
2022-09-06T11:00:47.484Z,1.48
2022-09-06T11:06:10.628Z,9.50
2022-09-06T11:09:23.401Z,3.78
2022-09-06T11:12:10.815Z,7.60
2022-09-06T11:14:39.402Z,1.98
2022-09-06T11:17:23.559Z,1.20
2022-09-06T11:20:00.815Z,2.00
2022-09-06T11:22:54.181Z,1.80
2022-09-06T11:25:44.268Z,8.23
2022-09-06T11:28:17.356Z,3.38
2022-09-06T11:30:50.588Z,2.08
2022-09-06T11:33:35.579Z,2.33
2022-09-06T11:36:45.287Z,2.75
2022-09-06T11:39:12.519Z,5.43
2022-09-06T11:41:41.506Z,2.03
2022-09-06T11:44:10.330Z,4.53
2022-09-06T11:46:43.610Z,2.03
2022-09-06T11:49:32.931Z,3.20
2022-09-06T11:52:00.421Z,1.80
2022-09-06T11:54:38.627Z,4.10
2022-09-06T11:57:12.671Z,0.98
2022-09-06T12:00:00.533Z,1.17
2022-09-06T12:02:41.644Z,1.75
2022-09-06T12:05:12.048Z,3.58
2022-09-06T12:08:10.692Z,2.67
2022-09-06T12:10:40.468Z,3.58
2022-09-06T12:13:33.135Z,4.30
2022-09-06T12:16:00.620Z,3.63
2022-09-06T12:18:47.772Z,2.17
2022-09-06T12:21:39.513Z,4.00
2022-09-06T12:26:54.444Z,2.15
2022-09-06T12:29:26.677Z,4.55
2022-09-06T12:32:05.885Z,1.90
2022-09-06T12:34:35.814Z,2.08
2022-09-06T12:37:05.818Z,4.40
2022-09-06T12:39:33.493Z,1.58
2022-09-06T12:42:11.767Z,2.35
2022-09-06T12:44:47.657Z,8.50
2022-09-06T12:47:24.500Z,1.40
2022-09-06T12:50:15.001Z,3.05
2022-09-06T12:53:02.483Z,2.28
2022-09-06T12:55:33.886Z,1.38
2022-09-06T12:58:06.188Z,4.63
2022-09-06T13:00:51.241Z,6.10
2022-09-06T13:03:24.508Z,4.63
2022-09-06T13:05:52.910Z,4.63
2022-09-06T13:08:35.485Z,9.02
2022-09-06T13:11:08.729Z,5.65
2022-09-06T13:13:35.657Z,4.85
2022-09-06T13:16:03.150Z,4.70
2022-09-06T13:18:37.918Z,2.90
2022-09-06T13:21:07.715Z,3.10
2022-09-06T13:23:50.417Z,2.03
2022-09-06T13:26:39.819Z,5.57
2022-09-06T13:29:19.961Z,4.47
2022-09-06T13:31:52.511Z,4.93
2022-09-06T13:34:28.062Z,6.55
2022-09-06T13:37:01.236Z,2.92
2022-09-06T13:39:39.670Z,4.72
2022-09-06T13:42:35.632Z,2.92
2022-09-06T13:45:27.131Z,7.68
2022-09-06T13:48:03.399Z,3.65
2022-09-06T13:50:41.352Z,4.18
2022-09-06T13:53:08.740Z,2.58
2022-09-06T13:55:35.622Z,2.45
2022-09-06T13:58:03.294Z,1.30
2022-09-06T14:00:30.547Z,2.38
2022-09-06T14:02:58.160Z,2.03
2022-09-06T14:05:25.069Z,2.25
2022-09-06T14:07:51.942Z,1.77
2022-09-06T14:10:21.413Z,4.75
2022-09-06T14:12:48.376Z,1.65
2022-09-06T14:15:15.310Z,3.35
2022-09-06T14:17:42.292Z,1.50
2022-09-06T14:20:09.784Z,3.00
2022-09-06T14:22:36.981Z,4.82
2022-09-06T14:25:04.405Z,4.28
2022-09-06T14:27:31.439Z,4.97
2022-09-06T14:29:58.864Z,3.65
2022-09-06T14:32:26.713Z,1.95
2022-09-06T14:34:53.803Z,4.90
2022-09-06T14:37:21.937Z,3.13
2022-09-06T14:40:26.477Z,2.22
2022-09-06T14:42:53.679Z,4.30
2022-09-06T14:45:20.650Z,3.03
2022-09-06T14:47:47.579Z,3.63
2022-09-06T14:50:14.503Z,1.73
2022-09-06T14:52:41.432Z,1.60
2022-09-06T14:55:08.717Z,1.83
2022-09-06T14:57:35.672Z,1.77
2022-09-06T15:00:07.146Z,1.52
2022-09-06T15:05:02.855Z,1.38
2022-09-06T15:07:31.021Z,3.28
2022-09-06T15:09:58.671Z,2.70
2022-09-06T15:12:25.951Z,3.53
2022-09-06T15:14:52.826Z,3.20
2022-09-06T15:17:19.726Z,2.38
2022-09-06T15:19:47.195Z,1.55
2022-09-06T15:22:14.132Z,1.73
2022-09-06T15:24:41.089Z,3.75
2022-09-06T15:27:08.055Z,8.60
2022-09-06T15:29:34.936Z,3.42
2022-09-06T15:32:02.078Z,3.92
2022-09-06T15:34:29.107Z,2.55
2022-09-06T15:36:57.143Z,2.45
2022-09-06T15:39:24.217Z,1.60
2022-09-06T15:41:51.800Z,1.60
2022-09-06T15:44:21.332Z,3.20
2022-09-06T15:46:58.153Z,1.40
2022-09-06T15:49:33.279Z,3.83
2022-09-06T15:52:02.686Z,2.38
2022-09-06T15:54:48.311Z,6.43
2022-09-06T15:57:16.631Z,3.78
2022-09-06T15:59:44.027Z,3.13
2022-09-06T16:02:11.164Z,9.65
2022-09-06T16:04:38.500Z,1.85
2022-09-06T16:07:06.239Z,3.72
2022-09-06T16:09:33.194Z,1.77
2022-09-06T16:12:00.180Z,1.70
2022-09-06T16:14:29.036Z,5.57
2022-09-06T16:16:57.413Z,14.60
2022-09-06T16:19:26.154Z,22.48
2022-09-06T16:21:53.296Z,4.85
2022-09-06T16:24:21.367Z,4.10
2022-09-06T16:26:48.451Z,2.22
2022-09-06T16:29:18.112Z,1.83
2022-09-06T16:31:45.586Z,2.38
2022-09-06T16:34:13.136Z,1.30
2022-09-06T16:36:40.378Z,2.08
2022-09-06T16:39:08.682Z,2.40
2022-09-06T16:41:40.466Z,2.55
2022-09-06T16:44:09.644Z,3.42
2022-09-06T16:46:36.686Z,12.23
2022-09-06T16:49:04.659Z,8.43
2022-09-06T16:51:31.973Z,4.72
2022-09-06T16:54:00.426Z,3.90
2022-09-06T16:56:31.859Z,4.28
2022-09-06T17:01:29.348Z,2.72
2022-09-06T17:03:57.474Z,3.75
2022-09-06T17:06:25.107Z,4.35
2022-09-06T17:08:52.184Z,4.25
2022-09-06T17:11:21.191Z,3.17
2022-09-06T17:13:50.212Z,4.30
2022-09-06T17:16:37.423Z,3.65
2022-09-06T17:19:06.361Z,4.78
2022-09-06T17:21:34.658Z,5.00
2022-09-06T17:24:05.447Z,3.83
2022-09-06T17:26:34.652Z,7.88
2022-09-06T17:29:01.750Z,3.33
2022-09-06T17:31:28.786Z,5.10
2022-09-06T17:33:56.301Z,5.47
2022-09-06T17:36:26.870Z,4.90
2022-09-06T17:39:09.808Z,4.37
2022-09-06T17:41:40.180Z,3.97
2022-09-06T17:44:10.856Z,4.72
2022-09-06T17:46:44.085Z,6.90
2022-09-06T17:49:24.860Z,7.65
2022-09-06T17:51:52.330Z,8.88
2022-09-06T17:54:19.394Z,6.85
2022-09-06T17:56:46.340Z,7.85
2022-09-06T17:59:15.652Z,10.43
2022-09-06T18:01:44.749Z,8.20
2022-09-06T18:04:13.251Z,7.63
2022-09-06T18:06:43.237Z,11.45
2022-09-06T18:09:14.770Z,10.73
2022-09-06T18:14:11.791Z,7.85
2022-09-06T18:16:40.584Z,9.85
2022-09-06T18:19:09.155Z,11.77
2022-09-06T18:21:39.022Z,10.90
2022-09-06T18:24:06.595Z,10.48
2022-09-06T18:26:33.895Z,9.80
2022-09-06T18:29:00.917Z,15.95
2022-09-06T18:31:28.736Z,12.02
2022-09-06T18:34:00.494Z,15.27
2022-09-06T18:36:32.019Z,15.68
2022-09-06T18:39:03.224Z,20.25
2022-09-06T18:41:49.483Z,13.27
2022-09-06T18:44:16.939Z,15.05
2022-09-06T18:46:44.069Z,19.50
2022-09-06T18:49:13.666Z,13.48
2022-09-06T18:51:40.870Z,14.50
2022-09-06T18:54:08.041Z,13.55
2022-09-06T18:56:35.122Z,14.90
2022-09-06T18:59:02.306Z,13.90
2022-09-06T19:01:30.456Z,15.95
2022-09-06T19:03:58.912Z,14.60
2022-09-06T19:06:28.372Z,13.95
2022-09-06T19:08:59.640Z,11.95
2022-09-06T19:11:26.914Z,13.38
2022-09-06T19:13:55.238Z,11.57
2022-09-06T19:16:23.961Z,11.32
2022-09-06T19:18:51.854Z,13.50
2022-09-06T19:21:22.020Z,22.75
2022-09-06T19:24:01.134Z,17.00
2022-09-06T19:26:32.248Z,14.70
2022-09-06T19:29:01.560Z,13.48
2022-09-06T19:31:31.133Z,10.07
2022-09-06T19:33:58.725Z,10.73
2022-09-06T19:36:27.853Z,8.70
2022-09-06T19:39:05.783Z,6.65
2022-09-06T19:41:36.256Z,7.15
2022-09-06T19:44:05.970Z,6.75
2022-09-06T19:46:33.179Z,5.53
2022-09-06T19:49:00.616Z,7.00
2022-09-06T19:51:27.708Z,4.68
2022-09-06T19:54:00.128Z,3.90
2022-09-06T19:56:34.245Z,5.70
2022-09-06T19:59:07.331Z,4.28
2022-09-06T20:01:36.562Z,5.25
2022-09-06T20:04:05.702Z,5.93
2022-09-06T20:06:33.684Z,7.45
2022-09-06T20:09:02.153Z,6.78
2022-09-06T20:11:32.409Z,9.43
2022-09-06T20:14:00.522Z,6.18
2022-09-06T20:16:28.382Z,5.68
2022-09-06T20:18:55.572Z,6.10
2022-09-06T20:21:22.859Z,4.82
2022-09-06T20:23:51.340Z,6.95
2022-09-06T20:26:19.772Z,6.70
2022-09-06T20:28:47.414Z,6.20
2022-09-06T20:31:17.369Z,6.90
2022-09-06T20:33:49.487Z,7.18
2022-09-06T20:36:18.308Z,6.00
2022-09-06T20:38:46.396Z,5.45
2022-09-06T20:41:22.802Z,5.07
2022-09-06T20:43:54.888Z,4.82
2022-09-06T20:46:27.189Z,4.57
2022-09-06T20:48:56.695Z,4.97
2022-09-06T20:51:25.245Z,7.55
2022-09-06T20:53:54.177Z,7.68
2022-09-06T20:56:23.923Z,4.85
2022-09-06T20:58:53.934Z,5.78
2022-09-06T21:01:26.155Z,5.85
2022-09-06T21:03:59.533Z,6.13
2022-09-06T21:06:28.274Z,5.07
2022-09-06T21:08:55.858Z,4.28
2022-09-06T21:11:23.363Z,5.40
2022-09-06T21:13:52.403Z,6.38
2022-09-06T21:16:24.204Z,2.83
2022-09-06T21:18:53.231Z,5.68
2022-09-06T21:21:20.179Z,5.65
2022-09-06T21:23:47.113Z,3.78
2022-09-06T21:26:18.020Z,4.40
2022-09-06T21:28:46.763Z,4.68
2022-09-06T21:31:18.329Z,4.57
2022-09-06T21:36:16.437Z,6.40
2022-09-06T21:38:45.804Z,4.97
2022-09-06T21:41:16.785Z,5.20
2022-09-06T21:43:44.503Z,5.43
2022-09-06T21:46:16.573Z,3.20
2022-09-06T21:48:46.247Z,3.53
2022-09-06T21:51:16.438Z,4.30
2022-09-06T21:53:48.330Z,4.15
2022-09-06T21:56:15.996Z,6.28
2022-09-06T21:58:44.401Z,4.07
2022-09-06T22:01:11.511Z,5.13
2022-09-06T22:03:42.168Z,4.13
2022-09-06T22:06:24.899Z,5.93
2022-09-06T22:08:52.409Z,5.80
2022-09-06T22:11:25.579Z,4.88
2022-09-06T22:13:52.670Z,3.88
2022-09-06T22:16:22.606Z,3.30
2022-09-06T22:18:49.993Z,6.45
2022-09-06T22:21:20.382Z,3.97
2022-09-06T22:23:57.183Z,5.00
2022-09-06T22:26:26.678Z,5.07
2022-09-06T22:28:55.600Z,5.70
2022-09-06T22:31:23.809Z,5.22
2022-09-06T22:33:51.030Z,3.75
2022-09-06T22:36:18.023Z,3.22
2022-09-06T22:38:45.519Z,3.17
2022-09-06T22:41:12.639Z,4.35
2022-09-06T22:43:39.491Z,2.80
2022-09-06T22:46:08.666Z,5.55
2022-09-06T22:48:36.226Z,1.95
2022-09-06T22:51:04.486Z,4.25
2022-09-06T22:53:31.882Z,1.85
2022-09-06T22:55:59.504Z,2.47
2022-09-06T22:58:27.200Z,1.98
2022-09-06T23:00:55.009Z,2.63
2022-09-06T23:03:22.313Z,3.78
2022-09-06T23:05:49.490Z,3.30
2022-09-06T23:08:16.655Z,2.47
2022-09-06T23:10:44.291Z,3.40
2022-09-06T23:13:11.679Z,4.72
2022-09-06T23:15:42.739Z,1.65
2022-09-06T23:18:09.723Z,4.07
2022-09-06T23:20:37.348Z,4.78
2022-09-06T23:23:13.806Z,1.75
2022-09-06T23:25:40.817Z,2.10
2022-09-06T23:28:07.789Z,3.28
2022-09-06T23:30:38.047Z,2.85
2022-09-06T23:33:05.143Z,3.13
2022-09-06T23:35:32.100Z,3.42
2022-09-06T23:37:59.133Z,3.55
2022-09-06T23:40:26.037Z,3.33
2022-09-06T23:42:52.921Z,2.15
2022-09-06T23:45:19.883Z,1.90
2022-09-06T23:47:46.958Z,3.28
2022-09-06T23:50:14.247Z,2.42
2022-09-06T23:52:41.246Z,3.05
2022-09-06T23:55:09.410Z,1.85
2022-09-06T23:57:36.330Z,6.55
